createdAt,value
2018-03-14T00:00:18.090Z,70.66
2018-03-14T00:02:47.020Z,71.86
2018-03-14T00:05:15.756Z,71.61
2018-03-14T00:07:44.577Z,68.98
2018-03-14T00:10:13.273Z,68.40
2018-03-14T00:12:41.976Z,67.71
2018-03-14T00:15:10.652Z,68.41
2018-03-14T00:17:39.577Z,68.17
2018-03-14T00:20:08.243Z,67.51
2018-03-14T00:22:36.907Z,67.23
2018-03-14T00:25:05.774Z,66.81
2018-03-14T00:27:34.435Z,66.48
2018-03-14T00:30:03.110Z,66.52
2018-03-14T00:32:31.971Z,66.00
2018-03-14T00:35:00.817Z,66.74
2018-03-14T00:37:29.542Z,66.66
2018-03-14T00:39:58.270Z,66.34
2018-03-14T00:42:26.932Z,67.13
2018-03-14T00:44:55.656Z,66.42
2018-03-14T00:47:24.408Z,66.49
2018-03-14T00:49:53.168Z,66.72
2018-03-14T00:52:21.909Z,66.18
2018-03-14T00:54:50.779Z,66.18
2018-03-14T00:57:19.502Z,66.58
2018-03-14T00:59:48.183Z,66.38
2018-03-14T01:02:16.885Z,66.42
2018-03-14T01:04:45.786Z,65.57
2018-03-14T01:07:14.468Z,66.04
2018-03-14T01:09:43.128Z,65.85
2018-03-14T01:12:11.635Z,65.47
2018-03-14T01:14:40.299Z,65.05
2018-03-14T01:17:09.007Z,66.10
2018-03-14T01:19:37.941Z,65.88
2018-03-14T01:22:06.690Z,65.45
2018-03-14T01:24:35.117Z,65.05
2018-03-14T01:27:03.813Z,65.34
2018-03-14T01:29:32.469Z,66.16
2018-03-14T01:32:01.333Z,66.70
2018-03-14T01:34:30.218Z,67.65
2018-03-14T01:36:59.080Z,66.70
2018-03-14T01:39:27.586Z,68.08
2018-03-14T01:41:56.382Z,68.01
2018-03-14T01:44:25.127Z,67.56
2018-03-14T01:46:53.902Z,66.89
2018-03-14T01:49:22.513Z,66.10
2018-03-14T01:51:51.437Z,65.98
2018-03-14T01:54:20.312Z,65.87
2018-03-14T01:56:48.997Z,65.04
2018-03-14T01:59:17.666Z,64.71
2018-03-14T02:01:46.328Z,64.44
2018-03-14T02:04:15.002Z,64.83
2018-03-14T02:06:43.962Z,65.12
2018-03-14T02:09:12.654Z,64.93
2018-03-14T02:11:41.419Z,64.74
2018-03-14T02:14:10.084Z,65.04
2018-03-14T02:16:38.825Z,66.22
2018-03-14T02:19:07.521Z,65.57
2018-03-14T02:21:36.393Z,66.00
2018-03-14T02:24:05.090Z,64.95
2018-03-14T02:26:33.753Z,64.90
2018-03-14T02:29:02.420Z,64.61
2018-03-14T02:31:31.222Z,63.70
2018-03-14T02:34:00.002Z,63.55
2018-03-14T02:36:40.199Z,63.27
2018-03-14T02:39:09.319Z,63.40
2018-03-14T02:41:38.193Z,63.95
2018-03-14T02:44:06.943Z,64.75
2018-03-14T02:46:35.606Z,65.16
2018-03-14T02:49:04.361Z,64.59
2018-03-14T02:51:33.040Z,63.85
2018-03-14T02:54:01.753Z,63.80
2018-03-14T02:56:30.407Z,64.04
2018-03-14T02:58:59.069Z,64.24
2018-03-14T03:01:27.949Z,64.91
2018-03-14T03:03:56.605Z,64.15
2018-03-14T03:06:25.252Z,63.50
2018-03-14T03:08:53.908Z,63.44
2018-03-14T03:11:22.612Z,63.93
2018-03-14T03:13:51.265Z,63.84
2018-03-14T03:16:19.920Z,64.19
2018-03-14T03:18:48.666Z,63.89
2018-03-14T03:21:17.376Z,63.62
2018-03-14T03:23:46.028Z,63.45
2018-03-14T03:26:14.718Z,64.61
2018-03-14T03:28:43.603Z,65.76
2018-03-14T03:31:12.626Z,66.52
2018-03-14T03:33:41.287Z,67.16
2018-03-14T03:36:10.002Z,67.36
2018-03-14T03:38:38.798Z,67.36
2018-03-14T03:41:07.531Z,68.26
2018-03-14T03:43:36.177Z,68.90
2018-03-14T03:46:04.878Z,69.77
2018-03-14T03:48:33.545Z,69.70
2018-03-14T03:51:02.183Z,70.67
2018-03-14T03:53:30.944Z,70.04
2018-03-14T03:55:59.653Z,70.05
2018-03-14T03:58:28.366Z,70.35
2018-03-14T04:00:57.005Z,69.97
2018-03-14T04:03:25.805Z,70.16
2018-03-14T04:05:54.510Z,69.89
2018-03-14T04:08:23.306Z,69.73
2018-03-14T04:10:52.057Z,70.21
2018-03-14T04:13:20.706Z,69.99
2018-03-14T04:15:49.498Z,69.51
2018-03-14T04:18:18.186Z,69.26
2018-03-14T04:20:46.825Z,69.55
2018-03-14T04:23:15.572Z,69.41
2018-03-14T04:25:44.305Z,69.43
2018-03-14T04:28:13.042Z,69.30
2018-03-14T04:30:41.805Z,69.01
2018-03-14T04:33:10.457Z,68.89
2018-03-14T04:35:39.112Z,68.64
2018-03-14T04:38:07.823Z,68.42
2018-03-14T04:40:36.493Z,68.90
2018-03-14T04:43:04.922Z,68.88
2018-03-14T04:45:33.420Z,71.05
2018-03-14T04:48:02.078Z,70.76
2018-03-14T04:50:30.740Z,70.19
2018-03-14T04:52:59.383Z,72.10
2018-03-14T04:55:28.134Z,71.52
2018-03-14T04:57:56.792Z,69.76
2018-03-14T05:00:25.517Z,69.23
2018-03-14T05:02:54.239Z,68.55
2018-03-14T05:05:22.956Z,67.54
2018-03-14T05:07:51.645Z,66.58
2018-03-14T05:10:20.301Z,66.12
2018-03-14T05:12:48.945Z,65.31
2018-03-14T05:15:17.709Z,65.34
2018-03-14T05:17:46.360Z,64.54
2018-03-14T05:20:15.016Z,63.24
2018-03-14T05:22:43.669Z,63.84
2018-03-14T05:25:12.369Z,66.19
2018-03-14T05:27:41.089Z,66.55
2018-03-14T05:30:09.849Z,66.99
2018-03-14T05:32:38.509Z,67.71
2018-03-14T05:35:07.224Z,66.72
2018-03-14T05:37:35.941Z,66.08
2018-03-14T05:40:04.648Z,65.96
2018-03-14T05:42:33.362Z,65.77
2018-03-14T05:45:02.042Z,67.13
2018-03-14T05:47:30.698Z,67.66
2018-03-14T05:49:59.391Z,66.68
2018-03-14T05:52:28.041Z,67.14
2018-03-14T05:54:56.919Z,67.51
2018-03-14T05:57:25.670Z,67.76
2018-03-14T05:59:54.405Z,68.60
2018-03-14T06:02:23.066Z,67.54
2018-03-14T06:04:51.777Z,66.51
2018-03-14T06:07:20.429Z,66.29
2018-03-14T06:09:49.139Z,65.61
2018-03-14T06:12:17.886Z,65.05
2018-03-14T06:14:46.596Z,66.32
2018-03-14T06:17:15.328Z,66.09
2018-03-14T06:19:43.969Z,66.00
2018-03-14T06:22:12.614Z,66.41
2018-03-14T06:24:41.325Z,65.72
2018-03-14T06:27:10.037Z,66.70
2018-03-14T06:29:38.797Z,66.57
2018-03-14T06:32:07.452Z,65.55
2018-03-14T06:34:36.329Z,65.57
2018-03-14T06:37:04.979Z,66.28
2018-03-14T06:39:33.645Z,67.46
2018-03-14T06:42:02.381Z,66.51
2018-03-14T06:44:31.027Z,66.86
2018-03-14T06:46:59.693Z,68.18
2018-03-14T06:49:28.453Z,69.37
2018-03-14T06:51:57.119Z,68.30
2018-03-14T06:54:25.604Z,68.65
2018-03-14T06:56:54.263Z,67.34
2018-03-14T06:59:33.999Z,67.08
2018-03-14T07:02:13.945Z,67.28
2018-03-14T07:05:06.616Z,66.74
2018-03-14T07:07:35.273Z,66.15
2018-03-14T07:10:03.714Z,66.92
2018-03-14T07:12:32.382Z,67.58
2018-03-14T07:15:01.091Z,67.28
2018-03-14T07:17:30.048Z,67.49
2018-03-14T07:19:58.890Z,67.53
2018-03-14T07:22:27.745Z,68.05
2018-03-14T07:24:56.392Z,66.85
2018-03-14T07:27:25.225Z,66.52
2018-03-14T07:29:53.895Z,65.93
2018-03-14T07:32:22.694Z,67.53
2018-03-14T07:34:51.459Z,66.65
2018-03-14T07:37:20.107Z,66.36
2018-03-14T07:39:48.842Z,67.01
2018-03-14T07:42:17.511Z,67.06
2018-03-14T07:44:46.247Z,65.87
2018-03-14T07:47:14.953Z,65.65
2018-03-14T07:49:43.678Z,66.14
2018-03-14T07:52:12.338Z,65.12
2018-03-14T07:54:41.028Z,64.78
2018-03-14T07:57:10.288Z,64.39
2018-03-14T07:59:39.005Z,64.37
2018-03-14T08:02:07.958Z,64.40
2018-03-14T08:04:36.811Z,63.17
2018-03-14T08:07:05.640Z,63.58
2018-03-14T08:09:34.555Z,63.36
2018-03-14T08:12:03.403Z,63.14
2018-03-14T08:14:32.235Z,63.60
2018-03-14T08:17:01.087Z,62.98
2018-03-14T08:19:29.965Z,62.76
2018-03-14T08:21:58.936Z,61.77
2018-03-14T08:24:27.726Z,62.04
2018-03-14T08:26:56.579Z,61.74
2018-03-14T08:29:25.428Z,61.74
2018-03-14T08:31:54.275Z,62.46
2018-03-14T08:34:23.243Z,62.53
2018-03-14T08:36:52.269Z,64.42
2018-03-14T08:39:21.165Z,64.75
2018-03-14T08:41:50.040Z,66.06
2018-03-14T08:44:18.960Z,65.06
2018-03-14T08:46:47.581Z,65.46
2018-03-14T08:49:16.443Z,65.13
2018-03-14T08:51:45.317Z,64.56
2018-03-14T08:54:14.263Z,64.95
2018-03-14T08:56:43.177Z,64.15
2018-03-14T08:59:12.142Z,63.61
2018-03-14T09:01:41.141Z,65.13
2018-03-14T09:04:10.045Z,64.78
2018-03-14T09:06:38.918Z,64.13
2018-03-14T09:09:07.847Z,63.27
2018-03-14T09:11:36.733Z,63.11
2018-03-14T09:14:05.717Z,62.59
2018-03-14T09:16:34.639Z,62.42
2018-03-14T09:19:03.560Z,61.54
2018-03-14T09:21:32.406Z,63.06
2018-03-14T09:24:01.418Z,62.63
2018-03-14T09:26:30.330Z,62.64
2018-03-14T09:28:59.190Z,61.99
2018-03-14T09:31:28.863Z,62.82
2018-03-14T09:33:57.785Z,62.93
2018-03-14T09:36:26.701Z,61.93
2018-03-14T09:38:55.880Z,61.45
2018-03-14T09:41:25.047Z,62.11
2018-03-14T09:43:53.967Z,61.83
2018-03-14T09:46:22.946Z,61.90
2018-03-14T09:48:51.799Z,60.65
2018-03-14T09:51:20.667Z,60.68
2018-03-14T09:53:49.516Z,60.63
2018-03-14T09:56:18.529Z,59.90
2018-03-14T09:58:47.445Z,59.11
2018-03-14T10:01:16.341Z,58.75
2018-03-14T10:03:45.199Z,58.92
2018-03-14T10:06:14.753Z,58.73
2018-03-14T10:08:43.704Z,58.26
2018-03-14T10:11:12.654Z,58.28
2018-03-14T10:13:41.524Z,58.67
2018-03-14T10:16:10.433Z,58.36
2018-03-14T10:18:39.388Z,57.84
2018-03-14T10:21:08.355Z,57.69
2018-03-14T10:23:37.341Z,56.91
2018-03-14T10:26:06.241Z,56.29
2018-03-14T10:28:35.123Z,55.99
2018-03-14T10:31:04.056Z,55.58
2018-03-14T10:33:33.005Z,54.18
2018-03-14T10:36:01.936Z,53.13
2018-03-14T10:38:30.916Z,54.18
2018-03-14T10:40:59.807Z,55.83
2018-03-14T10:43:28.771Z,55.21
2018-03-14T10:45:57.710Z,55.83
2018-03-14T10:48:26.714Z,56.24
2018-03-14T10:50:55.562Z,55.83
2018-03-14T10:53:24.441Z,56.33
2018-03-14T10:55:53.326Z,54.74
2018-03-14T10:58:22.221Z,53.98
2018-03-14T11:00:56.776Z,50.72
2018-03-14T11:03:31.172Z,52.15
2018-03-14T11:06:00.035Z,51.86
2018-03-14T11:08:28.959Z,52.35
2018-03-14T11:10:57.931Z,51.60
2018-03-14T11:13:27.036Z,50.51
2018-03-14T11:15:55.994Z,49.68
2018-03-14T11:18:24.978Z,50.67
2018-03-14T11:20:53.989Z,51.03
2018-03-14T11:23:22.929Z,50.71
2018-03-14T11:25:51.866Z,50.96
2018-03-14T11:28:20.733Z,50.86
2018-03-14T11:30:49.753Z,49.88
2018-03-14T11:33:18.627Z,49.43
2018-03-14T11:35:47.544Z,48.92
2018-03-14T11:38:16.443Z,48.83
2018-03-14T11:40:45.350Z,48.29
2018-03-14T11:43:14.257Z,48.75
2018-03-14T11:45:43.122Z,49.20
2018-03-14T11:48:12.013Z,49.79
2018-03-14T11:50:40.934Z,48.72
2018-03-14T11:53:09.825Z,48.69
2018-03-14T11:55:38.685Z,49.78
2018-03-14T11:58:07.540Z,48.91
2018-03-14T12:00:36.417Z,48.75
2018-03-14T12:03:05.279Z,50.18
2018-03-14T12:05:34.212Z,50.27
2018-03-14T12:08:03.090Z,50.40
2018-03-14T12:10:31.988Z,48.48
2018-03-14T12:13:00.832Z,49.46
2018-03-14T12:15:29.696Z,49.16
2018-03-14T12:17:58.612Z,49.23
2018-03-14T12:20:27.503Z,49.46
2018-03-14T12:22:56.359Z,49.24
2018-03-14T12:25:25.295Z,49.17
2018-03-14T12:27:54.145Z,50.22
2018-03-14T12:30:23.002Z,51.62
2018-03-14T12:32:51.934Z,49.53
2018-03-14T12:35:20.829Z,49.38
2018-03-14T12:37:49.810Z,49.53
2018-03-14T12:40:18.769Z,48.75
2018-03-14T12:42:47.774Z,46.96
2018-03-14T12:45:16.672Z,46.92
2018-03-14T12:47:45.518Z,47.70
2018-03-14T12:50:14.436Z,47.06
2018-03-14T12:52:43.356Z,47.21
2018-03-14T12:55:12.261Z,47.99
2018-03-14T12:57:41.131Z,49.44
2018-03-14T13:00:10.072Z,49.37
2018-03-14T13:02:38.994Z,49.87
2018-03-14T13:05:07.862Z,49.15
2018-03-14T13:07:36.706Z,48.41
2018-03-14T13:10:05.705Z,48.86
2018-03-14T13:12:34.571Z,48.21
2018-03-14T13:15:03.213Z,48.73
2018-03-14T13:17:31.792Z,48.05
2018-03-14T13:20:00.640Z,49.25
2018-03-14T13:22:29.554Z,49.27
2018-03-14T13:24:58.778Z,49.84
2018-03-14T13:27:27.710Z,49.68
2018-03-14T13:29:56.704Z,49.28
2018-03-14T13:32:25.560Z,49.88
2018-03-14T13:34:54.448Z,49.93
2018-03-14T13:37:23.350Z,49.36
2018-03-14T13:39:52.278Z,50.04
2018-03-14T13:42:21.261Z,50.27
2018-03-14T13:44:50.323Z,50.10
2018-03-14T13:47:19.293Z,50.05
2018-03-14T13:49:48.258Z,49.59
2018-03-14T13:52:17.142Z,50.44
2018-03-14T13:54:46.004Z,49.92
2018-03-14T13:57:14.922Z,50.80
2018-03-14T13:59:43.793Z,50.18
2018-03-14T14:02:12.705Z,49.93
2018-03-14T14:04:41.633Z,49.42
2018-03-14T14:07:10.593Z,48.92
2018-03-14T14:09:39.536Z,50.17
2018-03-14T14:12:08.588Z,50.46
2018-03-14T14:14:37.544Z,49.67
2018-03-14T14:17:06.532Z,50.59
2018-03-14T14:19:35.385Z,49.45
2018-03-14T14:22:03.989Z,48.08
2018-03-14T14:24:32.843Z,48.51
2018-03-14T14:27:01.852Z,47.95
2018-03-14T14:29:30.737Z,47.69
2018-03-14T14:31:59.806Z,47.57
2018-03-14T14:34:28.750Z,47.23
2018-03-14T14:36:57.802Z,46.73
2018-03-14T14:39:26.867Z,46.70
2018-03-14T14:41:55.796Z,48.34
2018-03-14T14:44:24.796Z,48.68
2018-03-14T14:46:53.743Z,48.53
2018-03-14T14:49:22.602Z,49.09
2018-03-14T14:51:51.574Z,49.47
2018-03-14T14:54:20.600Z,49.38
2018-03-14T14:56:49.838Z,49.46
2018-03-14T14:59:18.950Z,49.26
2018-03-14T15:01:47.956Z,48.11
2018-03-14T15:04:16.841Z,48.29
2018-03-14T15:06:45.603Z,48.53
2018-03-14T15:09:14.527Z,48.63
2018-03-14T15:11:43.642Z,48.99
2018-03-14T15:14:12.591Z,49.63
2018-03-14T15:16:41.513Z,49.45
2018-03-14T15:19:10.410Z,48.12
2018-03-14T15:21:39.335Z,48.83
2018-03-14T15:24:08.194Z,48.78
2018-03-14T15:26:37.098Z,49.21
2018-03-14T15:29:06.112Z,49.41
2018-03-14T15:31:34.996Z,49.92
2018-03-14T15:34:03.889Z,50.28
2018-03-14T15:36:32.762Z,51.87
2018-03-14T15:39:01.824Z,51.00
2018-03-14T15:41:30.720Z,51.97
2018-03-14T15:43:59.621Z,52.43
2018-03-14T15:46:28.489Z,52.06
2018-03-14T15:48:57.363Z,52.26
2018-03-14T15:51:26.308Z,51.36
2018-03-14T15:53:55.331Z,51.50
2018-03-14T15:56:23.961Z,51.61
2018-03-14T15:58:52.810Z,51.39
2018-03-14T16:01:21.864Z,51.38
2018-03-14T16:03:50.734Z,51.05
2018-03-14T16:06:19.698Z,50.83
2018-03-14T16:08:48.590Z,50.26
2018-03-14T16:11:17.681Z,51.81
2018-03-14T16:13:46.602Z,52.58
2018-03-14T16:16:15.631Z,53.00
2018-03-14T16:18:44.547Z,53.58
2018-03-14T16:21:13.800Z,53.62
2018-03-14T16:23:42.727Z,54.16
2018-03-14T16:26:11.810Z,54.01
2018-03-14T16:28:41.299Z,54.72
2018-03-14T16:31:10.805Z,54.51
2018-03-14T16:33:39.899Z,55.17
2018-03-14T16:36:09.022Z,55.58
2018-03-14T16:38:37.962Z,55.34
2018-03-14T16:41:07.066Z,55.33
2018-03-14T16:43:36.175Z,55.64
2018-03-14T16:46:05.318Z,54.87
2018-03-14T16:48:34.798Z,55.07
2018-03-14T16:51:03.559Z,55.19
2018-03-14T16:53:32.582Z,55.25
2018-03-14T16:56:01.638Z,55.47
2018-03-14T16:58:31.034Z,55.07
2018-03-14T17:00:59.955Z,55.61
2018-03-14T17:03:29.549Z,54.81
2018-03-14T17:05:58.916Z,55.18
2018-03-14T17:08:27.865Z,55.07
2018-03-14T17:10:56.751Z,54.97
2018-03-14T17:13:25.961Z,54.57
2018-03-14T17:15:55.159Z,54.11
2018-03-14T17:18:24.625Z,54.13
2018-03-14T17:20:53.596Z,54.80
2018-03-14T17:23:22.597Z,54.60
2018-03-14T17:25:51.696Z,54.39
2018-03-14T17:28:20.637Z,53.90
2018-03-14T17:30:49.529Z,53.96
2018-03-14T17:33:18.454Z,53.74
2018-03-14T17:35:47.338Z,53.46
2018-03-14T17:38:16.580Z,53.16
2018-03-14T17:40:45.558Z,52.85
2018-03-14T17:43:14.566Z,53.48
2018-03-14T17:45:43.608Z,53.82
2018-03-14T17:48:12.482Z,53.95
2018-03-14T17:50:41.568Z,53.98
2018-03-14T17:53:10.503Z,54.35
2018-03-14T17:55:39.464Z,54.41
2018-03-14T17:58:08.350Z,54.10
2018-03-14T18:00:37.310Z,53.70
2018-03-14T18:03:07.980Z,53.31
2018-03-14T18:05:37.034Z,53.32
2018-03-14T18:08:05.989Z,53.30
2018-03-14T18:10:35.034Z,53.89
2018-03-14T18:13:04.054Z,54.13
2018-03-14T18:15:30.397Z,53.96
2018-03-14T18:17:56.599Z,54.07
2018-03-14T18:20:22.928Z,54.00
2018-03-14T18:22:49.410Z,55.67
2018-03-14T18:25:16.039Z,55.90
2018-03-14T18:27:42.255Z,56.59
2018-03-14T18:30:08.629Z,56.33
2018-03-14T18:32:34.938Z,55.94
2018-03-14T18:35:01.553Z,55.16
2018-03-14T18:37:27.864Z,55.05
2018-03-14T18:39:54.150Z,54.94
2018-03-14T18:42:20.374Z,55.33
2018-03-14T18:44:46.638Z,54.96
2018-03-14T18:47:12.913Z,55.09
2018-03-14T18:49:39.219Z,55.17
2018-03-14T18:52:05.651Z,55.57
2018-03-14T18:54:31.942Z,55.91
2018-03-14T18:56:58.257Z,55.53
2018-03-14T18:59:24.647Z,55.95
2018-03-14T19:01:51.428Z,55.86
2018-03-14T19:04:18.380Z,56.35
2018-03-14T19:06:44.951Z,56.36
2018-03-14T19:09:11.280Z,56.76
2018-03-14T19:11:37.606Z,56.80
2018-03-14T19:14:03.837Z,57.06
2018-03-14T19:16:30.094Z,57.30
2018-03-14T19:18:56.420Z,56.64
2018-03-14T19:21:22.694Z,56.70
2018-03-14T19:23:48.962Z,56.73
2018-03-14T19:26:15.205Z,57.26
2018-03-14T19:28:41.458Z,57.35
2018-03-14T19:31:07.723Z,57.29
2018-03-14T19:33:34.019Z,57.44
2018-03-14T19:36:00.361Z,57.60
2018-03-14T19:38:26.594Z,57.82
2018-03-14T19:40:52.870Z,58.07
2018-03-14T19:43:19.106Z,58.18
2018-03-14T19:45:45.394Z,58.03
2018-03-14T19:48:11.905Z,57.84
2018-03-14T19:50:38.814Z,57.72
2018-03-14T19:53:05.092Z,59.23
2018-03-14T19:55:31.406Z,58.67
2018-03-14T19:57:57.737Z,58.97
2018-03-14T20:00:23.976Z,59.18
2018-03-14T20:02:50.221Z,58.87
2018-03-14T20:05:16.546Z,59.20
2018-03-14T20:07:42.958Z,59.43
2018-03-14T20:10:09.232Z,59.62
2018-03-14T20:12:35.451Z,59.41
2018-03-14T20:15:01.694Z,59.02
2018-03-14T20:17:27.994Z,59.60
2018-03-14T20:19:54.274Z,59.23
2018-03-14T20:22:20.624Z,58.99
2018-03-14T20:24:46.966Z,58.83
2018-03-14T20:27:13.243Z,58.88
2018-03-14T20:29:39.586Z,58.85
2018-03-14T20:32:05.926Z,58.69
2018-03-14T20:34:32.278Z,58.56
2018-03-14T20:36:58.555Z,59.74
2018-03-14T20:39:24.850Z,59.35
2018-03-14T20:41:51.430Z,58.88
2018-03-14T20:44:17.617Z,58.73
2018-03-14T20:46:43.858Z,58.46
2018-03-14T20:49:10.063Z,58.41
2018-03-14T20:51:36.369Z,58.20
2018-03-14T20:54:02.715Z,57.89
2018-03-14T20:56:28.991Z,57.59
2018-03-14T20:58:56.245Z,57.63
2018-03-14T21:01:22.557Z,57.28
2018-03-14T21:03:48.726Z,57.11
2018-03-14T21:06:15.058Z,57.02
2018-03-14T21:08:41.545Z,57.29
2018-03-14T21:11:07.941Z,56.72
2018-03-14T21:13:34.327Z,56.64
2018-03-14T21:16:00.805Z,57.09
2018-03-14T21:18:27.078Z,57.82
2018-03-14T21:20:53.275Z,57.08
2018-03-14T21:23:19.629Z,57.41
2018-03-14T21:25:45.910Z,56.96
2018-03-14T21:28:12.113Z,57.57
2018-03-14T21:30:38.344Z,57.79
2018-03-14T21:33:04.620Z,59.21
2018-03-14T21:35:31.076Z,60.57
2018-03-14T21:37:57.373Z,60.07
2018-03-14T21:40:23.676Z,59.36
2018-03-14T21:42:49.943Z,59.19
2018-03-14T21:45:16.290Z,60.01
2018-03-14T21:47:42.782Z,60.40
2018-03-14T21:50:09.131Z,59.77
2018-03-14T21:52:35.434Z,60.89
2018-03-14T21:55:01.763Z,61.21
2018-03-14T21:57:28.121Z,60.87
2018-03-14T21:59:54.369Z,60.99
2018-03-14T22:02:20.776Z,60.85
2018-03-14T22:04:47.329Z,60.15
2018-03-14T22:07:13.952Z,59.58
2018-03-14T22:09:40.443Z,59.35
2018-03-14T22:12:06.848Z,59.72
2018-03-14T22:14:33.088Z,59.35
2018-03-14T22:16:59.389Z,61.52
2018-03-14T22:19:25.645Z,61.31
2018-03-14T22:21:51.998Z,60.66
2018-03-14T22:24:18.530Z,60.97
2018-03-14T22:26:45.087Z,60.61
2018-03-14T22:29:11.391Z,60.84
2018-03-14T22:31:37.675Z,62.37
2018-03-14T22:34:04.046Z,61.88
2018-03-14T22:36:30.289Z,62.09
2018-03-14T22:39:04.550Z,61.54
2018-03-14T22:41:30.848Z,62.50
2018-03-14T22:43:57.175Z,62.27
2018-03-14T22:46:23.486Z,61.36
2018-03-14T22:48:49.917Z,60.83
2018-03-14T22:51:16.212Z,60.27
2018-03-14T22:53:42.509Z,60.46
2018-03-14T22:56:08.822Z,60.30
2018-03-14T22:58:35.114Z,60.09
2018-03-14T23:01:01.386Z,60.27
2018-03-14T23:03:27.861Z,60.56
2018-03-14T23:05:54.347Z,61.30
2018-03-14T23:08:20.687Z,61.79
2018-03-14T23:10:47.128Z,61.68
2018-03-14T23:13:13.307Z,62.08
2018-03-14T23:15:39.694Z,61.31
2018-03-14T23:18:06.020Z,63.09
2018-03-14T23:20:32.231Z,62.87
2018-03-14T23:22:58.672Z,62.20
2018-03-14T23:25:24.932Z,61.54
2018-03-14T23:27:51.202Z,61.17
2018-03-14T23:30:17.531Z,60.95
2018-03-14T23:32:44.140Z,60.63
2018-03-14T23:35:10.709Z,60.20
2018-03-14T23:37:37.076Z,60.14
2018-03-14T23:40:04.983Z,60.06
2018-03-14T23:42:31.278Z,61.13
2018-03-14T23:44:57.619Z,62.28
2018-03-14T23:47:24.238Z,62.42
2018-03-14T23:49:50.553Z,62.79
2018-03-14T23:52:17.019Z,63.19
2018-03-14T23:54:43.849Z,63.04
2018-03-14T23:57:10.487Z,62.84
2018-03-14T23:59:36.816Z,64.30
